LSMELSZL

Guest
Details From LSME - Emmen
To LSZL - Locarno
Flight Number -
Tags decoded
Created
Modified
Stats Distance 100 nm / 185 km
Max Altitude 0 ft / 0 m
Waypoints 9
Social Downloads 5
Likes 0
Share VATSIM

Download

Looking for another format? Having issues loading an existing format? Contact us
Advertisement - Login to hide

Notes

Requested: LSME WIL RONIX ZC101 GERSA N850 ODINA LSZA CALDO LSZL Unmatched points: ZC101

Route

LSME RONIX GERSA N850 ODINA LSZA LSZL

ID Type Via Altitude Latitude Longitude Leg Dist Tot Dist Heading (true) Name
O LSME APT - 0 ft / 0 m 47.09237˚ 8.30512˚ - 0 nm - Emmen
RONIX FIX - 0 ft / 0 m 47.22833˚ 8.45833˚ 10 nm 10 nm 37° / 38° -
GERSA FIX - 0 ft / 0 m 47.03944˚ 8.53222˚ 11 nm 22 nm 165° / 165° -
MALUS FIX N850 (AWY-LO) 0 ft / 0 m 46.82833˚ 8.56250˚ 12 nm 34 nm 174° / 174° -
SOSON FIX N850 (AWY-LO) 0 ft / 0 m 46.60667˚ 8.59417˚ 13 nm 48 nm 174° / 174° -
DEGAD FIX N850 (AWY-LO) 0 ft / 0 m 46.43611˚ 8.61833˚ 10 nm 58 nm 174° / 174° -
ODINA FIX N850 (AWY-LO) 0 ft / 0 m 46.10444˚ 8.66500˚ 20 nm 78 nm 174° / 174° -
LSZA APT - 0 ft / 0 m 46.00428˚ 8.91058˚ 11 nm 90 nm 120° / 121° Lugano
O LSZL APT - 0 ft / 0 m 46.16262˚ 8.87987˚ 9 nm 99 nm 352° / 352° Locarno

Altitude Profile

Advertisement - Login to hide

LSME

Details ICAO LSME
Name Emmen
Region Switzerland
Timezone Europe/Zurich (UTC+1.0)
Stats Elevation 1,400 ft / 427 m (AMSL)
Location 47.092369° 8.305118°
Runways 1
Magnetic Variation 2.284° E

METAR

LSME 170350Z AUTO 00000KT 7000NDV -SHRA FEW014 SCT021 OVC029 00/M00 Q1021 RMK

Decode

TAF

Not found

Departure Runways

ID Width Length Bearing (true) Bearing (mag) Surface Threshold Offset Overrun Length
04 130 ft / 40 m 8,202 ft / 2,500 m 37.49° 35.21° Asphalt 363 ft / 111 m 810 ft / 247 m
22 130 ft / 40 m 8,202 ft / 2,500 m 217.51° 215.23° Asphalt 596 ft / 182 m 747 ft / 228 m

LSZL

Details ICAO LSZL (ZJI)
Name Locarno
Region Switzerland
Timezone Europe/Zurich (UTC+1.0)
Stats Elevation 650 ft / 198 m (AMSL)
Location 46.162618° 8.879874°
Runways 3
Magnetic Variation 2.419° E

METAR

LSZL 170350Z AUTO 05006KT 9999NDV NCD 00/M06 Q1017 RMK

Decode

TAF

Not found

Destination Runways

ID Width Length Bearing (true) Bearing (mag) Surface Threshold Offset Overrun Length
08C 98 ft / 30 m 2,298 ft / 700 m 80.00° 77.58° Grass 0 ft / 0 m 0 ft / 0 m
08L 75 ft / 23 m 2,626 ft / 801 m 80.00° 77.58° Asphalt 0 ft / 0 m 0 ft / 0 m
08R 98 ft / 30 m 2,298 ft / 700 m 80.00° 77.58° Grass 0 ft / 0 m 0 ft / 0 m
26C 98 ft / 30 m 2,298 ft / 700 m 260.00° 257.58° Grass 0 ft / 0 m 0 ft / 0 m
26L 98 ft / 30 m 2,298 ft / 700 m 260.00° 257.58° Grass 0 ft / 0 m 0 ft / 0 m
26R 75 ft / 23 m 2,626 ft / 801 m 260.00° 257.58° Asphalt 0 ft / 0 m 0 ft / 0 m